»·PEaware :: N74TW KLAX-KSNA

N74TW :: KLAX-KSNA

FLIGHT INFORMATION

Flight Status: Arrived
Operator: Privately registered:
United States
More flights under this callsign
Pilot: Kelly C. (19495)
Aircraft: BEECH AIRCRAFT BARON
(BE58)
More flights by this aircraft type
Origin: KLAX Los Angeles Intl
United States
Destination: KSNA John Wayne-Orange Co
United States
More flights between these airports :: More routes between these airports
Route: SLI8 SLI
File this flight plan on PilotEdge
Remarks: I-6
Altitude:
(Current/Filed)
4,000ft
Speed:
(Current/Filed)
160kts
Departed: 10-Jan-20 09:07 PM
Arrived: 10-Jan-20 09:38 PM
Distance/Time
Traveled:
31nm/0:30
Distance/Time
To Go:
Arrived

Flight Plot

Page will automatically refresh every two minutes.

Flight plan parsing failed; only flown route is shown


Map Options




Map Legend


Flown Route
Filed Route
Departure Airport
Arrival Airport
Navaid (VOR, NDB)
Fix

Horizontal Profiles

Position Reports

Time Latitude Longitude Heading Altitude Ground
Speed
10-Jan-20 20:50 33.934170 -118.394598 175 108ft 0kts
10-Jan-20 20:51 33.934170 -118.394598 175 108ft 0kts
10-Jan-20 20:52 33.934170 -118.394598 175 108ft 0kts
10-Jan-20 20:53 33.934170 -118.394598 176 108ft 0kts
10-Jan-20 20:54 33.934170 -118.394598 175 108ft 0kts
10-Jan-20 20:55 33.934170 -118.394598 175 108ft 0kts
10-Jan-20 20:56 33.934170 -118.394598 175 108ft 0kts
10-Jan-20 20:57 33.934170 -118.394598 175 108ft 0kts
10-Jan-20 20:58 33.934170 -118.394598 175 108ft 0kts
10-Jan-20 20:59 33.934170 -118.394598 175 108ft 0kts
10-Jan-20 21:00 33.934170 -118.394598 175 108ft 0kts
10-Jan-20 21:01 33.934170 -118.394598 175 108ft 0kts
10-Jan-20 21:02 33.934622 -118.393855 352 108ft 8kts
10-Jan-20 21:03 33.935646 -118.387501 82 108ft 25kts
10-Jan-20 21:04 33.936472 -118.382759 358 108ft 0kts
10-Jan-20 21:05 33.936472 -118.382759 358 108ft 0kts
10-Jan-20 21:06 33.936585 -118.390175 264 108ft 77kts
10-Jan-20 21:07 33.932019 -118.428971 262 834ft 151kts
10-Jan-20 21:08 33.905322 -118.468577 215 2180ft 157kts
10-Jan-20 21:09 33.866502 -118.473358 172 3664ft 137kts
10-Jan-20 21:10 33.825750 -118.451308 142 4002ft 176kts
10-Jan-20 21:11 33.785724 -118.413786 142 3999ft 176kts
10-Jan-20 21:12 33.745880 -118.376377 142 3999ft 176kts
10-Jan-20 21:13 33.713450 -118.334056 81 4000ft 172kts
10-Jan-20 21:14 33.727620 -118.277948 73 3998ft 179kts
10-Jan-20 21:15 33.741693 -118.221855 72 4004ft 175kts
10-Jan-20 21:16 33.755574 -118.166004 72 4015ft 173kts
10-Jan-20 21:17 33.769481 -118.110443 72 3979ft 180kts
10-Jan-20 21:18 33.783343 -118.055325 69 3985ft 174kts
10-Jan-20 21:19 33.803416 -118.004913 63 3990ft 168kts
10-Jan-20 21:20 33.822471 -117.957036 63 3980ft 146kts
10-Jan-20 21:21 33.839349 -117.915467 63 3991ft 141kts
10-Jan-20 21:22 33.857481 -117.870817 63 3998ft 167kts
10-Jan-20 21:23 33.878029 -117.819084 63 3989ft 170kts
10-Jan-20 21:24 33.899424 -117.765451 63 3985ft 173kts
10-Jan-20 21:25 33.922044 -117.713441 40 3980ft 160kts
10-Jan-20 21:26 33.958594 -117.688897 24 3998ft 159kts
10-Jan-20 21:27 33.984391 -117.710421 239 3973ft 164kts
10-Jan-20 21:28 33.941187 -117.708621 168 3987ft 169kts
10-Jan-20 21:29 33.898758 -117.726292 210 3545ft 162kts
10-Jan-20 21:30 33.861277 -117.750693 208 3438ft 149kts
10-Jan-20 21:31 33.823361 -117.775199 209 3174ft 165kts
10-Jan-20 21:32 33.788704 -117.797069 208 2457ft 134kts
10-Jan-20 21:33 33.757217 -117.817281 209 1811ft 133kts
10-Jan-20 21:34 33.728117 -117.835632 207 1117ft 113kts
10-Jan-20 21:35 33.702608 -117.851723 205 586ft 104kts
10-Jan-20 21:36 33.678778 -117.866875 203 59ft 74kts
10-Jan-20 21:37 33.674222 -117.870823 289 59ft 1kts
10-Jan-20 21:38 33.674138 -117.871965 107 59ft 0kts
10-Jan-20 21:39 33.674138 -117.871965 107 59ft 0kts
10-Jan-20 21:40 33.674138 -117.871965 107 59ft 0kts

Navigation Log

Ident Type
Flight plan parsing failed, navigation log unavailable